Impacts METAR Board INFO
IDs:

KEWR - Newark Intl, NJ, US

Updated at: 0626 UTC 14 Dec 2017
Potential Impact None Slight Moderate High
Time13/18Z 13/19Z 13/20Z 13/21Z 13/22Z 13/23Z 14/00Z 14/01Z 14/02Z 14/03Z 14/04Z 14/05Z 14/06Z
VIS10 10 10 10 10 10 10 10 10 10 10 1.75 1.75
CIG-- -- -- -- -- -- -- 250 110 90 60 14 12
CoverSCTFEWFEWFEWFEWFEWFEWBKNBKNOVCOVCOVCOVC
FltCatVFRVFRVFRVFRVFRVFRVFRVFRVFRVFRVFRIFRIFR
WX-----------------------SN-SN BR
WDir2802802702702602602502602502602402300
WSpd17 21 16 22 20 13 15 14 11 10 8 10 0
WGst28 32 24 26 24 23 23 21 18 -- -- -- --
Raw hourly METARs
KEWR 131751Z 28017G28KT 10SM FEW045 SCT055 SCT085 00/M16 A2956 RMK AO2 PK WND 28037/1659 SLP008 T00001161 10000 21067 57006
KEWR 131851Z 28021G32KT 10SM FEW055 01/M17 A2958 RMK AO2 PK WND 27035/1809 SLP016 T00061167
KEWR 131951Z 27016G24KT 10SM FEW060 01/M16 A2960 RMK AO2 PK WND 27034/1922 SLP023 T00061161
KEWR 132051Z 27022G26KT 10SM FEW060 M01/M14 A2961 RMK AO2 PK WND 28031/2007 SLP028 T10061144 51020
KEWR 132151Z 26020G24KT 10SM FEW055 M02/M14 A2965 RMK AO2 PK WND 26029/2100 SLP038 T10171144
KEWR 132251Z 26013G23KT 10SM FEW055 M02/M14 A2967 RMK AO2 SLP048 T10221144
KEWR 132351Z 25015G23KT 10SM FEW055 FEW250 M03/M14 A2968 RMK AO2 SLP051 T10281144 10011 21028 51023
KEWR 140051Z 26014G21KT 10SM FEW055 SCT130 BKN250 M03/M14 A2969 RMK AO2 SLP052 T10281144
KEWR 140151Z 25011G18KT 10SM FEW070 BKN110 BKN250 M03/M15 A2968 RMK AO2 SLP049 T10281150
KEWR 140251Z 26010KT 10SM FEW070 BKN090 OVC130 M03/M15 A2968 RMK AO2 SLP049 T10281150 58002
KEWR 140351Z 24008KT 10SM BKN060 OVC100 M02/M14 A2967 RMK AO2 SLP048 VIRGA T10221144
KEWR 140459Z 23010KT 1 3/4SM -SN FEW009 BKN014 OVC022 M04/M09 A2970 RMK AO2 P0000 T10441089
KEWR 140603Z 00000KT 1 3/4SM -SN BR FEW008 BKN012 OVC020 M05/M07 A2964 RMK AO2 TWR VIS 2 1/2 P0000 T10501072